Time;durP1;ratioP1;P1;durP2;ratioP2;P2;SDS_P1;SDS_P2;PMS_P1;PMS_P2;Temp;Humidity;BMP_temperature;BMP_pressure;BME280_temperature;BME280_humidity;BME280_pressure;Samples;Min_cycle;Max_cycle;Signal;HPM_P1;HPM_P2
2021/12/12 00:00:33;;;;;;;25.13;14.43;;;;;;;;;;5007959;28;20105;-89
2021/12/12 00:03:03;;;;;;;21.25;11.38;;;;;;;;;;5027147;28;20041;-89
2021/12/12 00:05:33;;;;;;;20.00;11.23;;;;;;;;;;5019079;28;20389;-88
2021/12/12 00:08:00;;;;;;;24.10;12.05;;;;;;;;;;5033994;28;20103;-88
2021/12/12 00:10:27;;;;;;;21.15;10.30;;;;;;;;;;5017339;28;20682;-88
2021/12/12 00:12:57;;;;;;;20.13;10.60;;;;;;;;;;5018720;28;20038;-88
2021/12/12 00:15:23;;;;;;;23.02;10.90;;;;;;;;;;5004761;28;20091;-89
2021/12/12 00:17:49;;;;;;;25.92;15.30;;;;;;;;;;5018652;28;20124;-88
2021/12/12 00:20:18;;;;;;;19.95;12.63;;;;;;;;;;5013788;28;20056;-91
2021/12/12 00:22:44;;;;;;;23.88;12.18;;;;;;;;;;5035923;28;20099;-87
2021/12/12 00:25:11;;;;;;;28.10;13.57;;;;;;;;;;5015832;28;20048;-88
2021/12/12 00:27:37;;;;;;;27.33;14.88;;;;;;;;;;5013835;28;20049;-89
2021/12/12 00:30:05;;;;;;;26.98;14.52;;;;;;;;;;5015457;28;20332;-89
2021/12/12 00:32:35;;;;;;;23.75;12.93;;;;;;;;;;5032030;28;20065;-89
2021/12/12 00:35:04;;;;;;;26.42;11.40;;;;;;;;;;5016015;28;20084;-88
2021/12/12 00:37:30;;;;;;;26.20;15.50;;;;;;;;;;5019916;28;20407;-90
2021/12/12 00:39:57;;;;;;;27.70;13.80;;;;;;;;;;5032710;28;20052;-89
2021/12/12 00:42:25;;;;;;;24.50;12.23;;;;;;;;;;5015222;28;20064;-90
2021/12/12 00:44:53;;;;;;;22.60;12.13;;;;;;;;;;5015571;28;20072;-93
2021/12/12 00:47:20;;;;;;;29.50;15.15;;;;;;;;;;5013842;28;20041;-91
2021/12/12 00:49:47;;;;;;;30.00;16.08;;;;;;;;;;5020342;28;20048;-89
2021/12/12 00:52:14;;;;;;;27.60;14.27;;;;;;;;;;5019468;28;20110;-91
2021/12/12 00:54:41;;;;;;;32.50;16.88;;;;;;;;;;5020588;28;20068;-91
2021/12/12 00:57:08;;;;;;;33.15;17.42;;;;;;;;;;5038118;28;20072;-92
2021/12/12 00:59:35;;;;;;;25.77;15.57;;;;;;;;;;5014006;28;20049;-91
2021/12/12 01:02:02;;;;;;;29.13;15.05;;;;;;;;;;5021507;28;20305;-90
2021/12/12 01:04:30;;;;;;;33.17;15.95;;;;;;;;;;5030883;28;20044;-90
2021/12/12 01:06:58;;;;;;;30.00;16.80;;;;;;;;;;5018466;28;20061;-90
2021/12/12 01:09:27;;;;;;;34.90;16.60;;;;;;;;;;5020128;28;20037;-93
2021/12/12 01:11:54;;;;;;;31.83;17.92;;;;;;;;;;5021311;28;20108;-91
2021/12/12 01:14:23;;;;;;;30.45;16.98;;;;;;;;;;5029106;28;20083;-91
2021/12/12 01:16:56;;;;;;;30.02;14.93;;;;;;;;;;5025904;28;20033;-92
2021/12/12 01:19:37;;;;;;;29.40;15.40;;;;;;;;;;5022552;28;20319;-92
2021/12/12 01:22:05;;;;;;;30.13;16.27;;;;;;;;;;5013761;28;20226;-91
2021/12/12 01:24:33;;;;;;;32.80;16.73;;;;;;;;;;5017051;28;20064;-92
2021/12/12 01:27:01;;;;;;;33.38;16.83;;;;;;;;;;5033028;28;20068;-92
2021/12/12 01:29:27;;;;;;;30.30;15.57;;;;;;;;;;5012813;28;20277;-92
2021/12/12 01:31:56;;;;;;;28.85;15.93;;;;;;;;;;5014219;28;20048;-92
2021/12/12 01:34:28;;;;;;;31.48;16.75;;;;;;;;;;5014918;28;20103;-90
2021/12/12 01:39:54;;;;;;;28.88;17.80;;;;;;;;;;5034451;28;20260;-93
2021/12/12 01:42:23;;;;;;;35.35;19.55;;;;;;;;;;5015645;28;20442;-93
2021/12/12 01:44:49;;;;;;;38.53;19.48;;;;;;;;;;5016634;28;20045;-92
2021/12/12 01:47:35;;;;;;;28.20;16.13;;;;;;;;;;5008679;28;20038;-92
2021/12/12 01:50:05;;;;;;;32.72;19.40;;;;;;;;;;5015196;28;20018;-91
2021/12/12 01:52:32;;;;;;;37.95;22.63;;;;;;;;;;5011016;28;20080;-92
2021/12/12 01:55:01;;;;;;;33.28;19.05;;;;;;;;;;5031442;28;20057;-92
2021/12/12 01:57:29;;;;;;;32.35;20.52;;;;;;;;;;5022385;28;20049;-93
2021/12/12 01:59:57;;;;;;;34.97;18.92;;;;;;;;;;5032590;28;20037;-92
2021/12/12 02:02:26;;;;;;;33.38;18.58;;;;;;;;;;5012522;28;20040;-91
2021/12/12 02:04:55;;;;;;;34.38;20.15;;;;;;;;;;5014964;28;20265;-93
2021/12/12 02:07:24;;;;;;;29.35;18.70;;;;;;;;;;5014752;28;20116;-91
2021/12/12 02:09:50;;;;;;;29.70;17.83;;;;;;;;;;5013929;28;20098;-92
2021/12/12 02:12:18;;;;;;;33.75;21.40;;;;;;;;;;5009575;28;20067;-93
2021/12/12 02:14:44;;;;;;;29.45;17.70;;;;;;;;;;5002535;28;20105;-92
2021/12/12 02:17:18;;;;;;;32.67;20.50;;;;;;;;;;5003582;28;20068;-93
2021/12/12 02:20:03;;;;;;;33.00;21.15;;;;;;;;;;5012447;28;20409;-93
2021/12/12 02:36:05;;;;;;;30.73;17.63;;;;;;;;;;5030735;28;20108;-92
2021/12/12 02:38:33;;;;;;;26.58;19.48;;;;;;;;;;5012718;28;20041;-92
2021/12/12 02:41:04;;;;;;;33.45;18.73;;;;;;;;;;5015100;28;20148;-94
2021/12/12 02:43:33;;;;;;;35.15;20.85;;;;;;;;;;5033025;28;20083;-91
2021/12/12 02:45:59;;;;;;;26.95;14.30;;;;;;;;;;5034039;28;20061;-92
2021/12/12 02:48:33;;;;;;;26.35;16.45;;;;;;;;;;5014247;28;20067;-91
2021/12/12 02:51:02;;;;;;;27.95;15.82;;;;;;;;;;5017923;28;20037;-91
2021/12/12 02:53:30;;;;;;;22.27;14.60;;;;;;;;;;5016727;28;20029;-94
2021/12/12 02:56:00;;;;;;;22.83;16.55;;;;;;;;;;5011924;28;20042;-92
2021/12/12 02:58:27;;;;;;;22.73;15.48;;;;;;;;;;5014212;28;20045;-93
2021/12/12 03:01:00;;;;;;;21.05;15.15;;;;;;;;;;5033361;28;20033;-94
2021/12/12 03:03:31;;;;;;;21.15;14.70;;;;;;;;;;5035436;28;20032;-91
2021/12/12 03:05:58;;;;;;;21.08;15.20;;;;;;;;;;5032807;28;20123;-92
2021/12/12 03:08:24;;;;;;;22.65;15.70;;;;;;;;;;5013253;28;20124;-92
2021/12/12 03:10:51;;;;;;;21.50;15.75;;;;;;;;;;5029551;28;20045;-92
2021/12/12 03:13:18;;;;;;;20.63;14.85;;;;;;;;;;5028068;28;20321;-93
2021/12/12 03:15:45;;;;;;;20.20;15.43;;;;;;;;;;5029490;28;20037;-93
2021/12/12 03:18:14;;;;;;;19.65;14.05;;;;;;;;;;5029657;28;20314;-92
2021/12/12 03:20:43;;;;;;;22.08;12.85;;;;;;;;;;5031465;28;20343;-94
2021/12/12 03:23:23;;;;;;;20.80;14.35;;;;;;;;;;5028736;28;20037;-91
2021/12/12 03:25:51;;;;;;;19.60;12.07;;;;;;;;;;5007925;28;20381;-91
2021/12/12 03:28:18;;;;;;;17.88;11.27;;;;;;;;;;5009551;28;20041;-92
2021/12/12 03:30:45;;;;;;;17.10;10.90;;;;;;;;;;5005903;28;20053;-93
2021/12/12 03:33:11;;;;;;;23.02;11.75;;;;;;;;;;5031190;28;20041;-93
2021/12/12 03:35:38;;;;;;;18.50;12.43;;;;;;;;;;5009744;28;20090;-91
2021/12/12 03:38:05;;;;;;;18.75;10.45;;;;;;;;;;5013556;28;20063;-91
2021/12/12 03:40:33;;;;;;;15.63;9.02;;;;;;;;;;5002726;28;20339;-90
2021/12/12 03:43:00;;;;;;;14.77;9.63;;;;;;;;;;5030544;28;20385;-93
2021/12/12 03:45:27;;;;;;;14.73;8.20;;;;;;;;;;5040751;28;20092;-93
2021/12/12 03:47:59;;;;;;;15.35;9.70;;;;;;;;;;5013690;28;20522;-92
2021/12/12 03:50:29;;;;;;;19.52;11.13;;;;;;;;;;5031425;28;20073;-90
2021/12/12 03:52:55;;;;;;;14.50;10.55;;;;;;;;;;5014442;28;20030;-91
2021/12/12 03:55:23;;;;;;;14.75;10.73;;;;;;;;;;5010983;28;20133;-92
2021/12/12 03:57:49;;;;;;;11.93;8.60;;;;;;;;;;5025975;28;20256;-91
2021/12/12 04:00:27;;;;;;;13.90;7.75;;;;;;;;;;5007458;28;20046;-92
2021/12/12 04:02:54;;;;;;;14.73;9.23;;;;;;;;;;5016562;28;20029;-92
2021/12/12 04:05:20;;;;;;;12.32;9.05;;;;;;;;;;5027628;28;20037;-93
2021/12/12 04:07:49;;;;;;;15.98;9.90;;;;;;;;;;5028217;28;20041;-93
2021/12/12 04:10:19;;;;;;;15.77;10.88;;;;;;;;;;5018408;28;20078;-91
2021/12/12 04:12:46;;;;;;;11.38;8.82;;;;;;;;;;5029573;28;20041;-93
2021/12/12 04:15:12;;;;;;;13.48;9.27;;;;;;;;;;5019023;28;20112;-92
2021/12/12 04:17:38;;;;;;;14.10;10.10;;;;;;;;;;5033356;28;20267;-93
2021/12/12 04:20:10;;;;;;;11.50;8.63;;;;;;;;;;5010846;28;20056;-93
2021/12/12 04:22:36;;;;;;;17.15;10.50;;;;;;;;;;5012714;28;20057;-93
2021/12/12 04:25:03;;;;;;;13.02;9.60;;;;;;;;;;5013313;28;20025;-92
2021/12/12 04:27:29;;;;;;;16.98;10.70;;;;;;;;;;5012594;28;20046;-91
2021/12/12 04:29:56;;;;;;;14.35;10.57;;;;;;;;;;5035259;28;20049;-93
2021/12/12 04:32:24;;;;;;;13.10;8.38;;;;;;;;;;5016038;28;20048;-93
2021/12/12 04:34:56;;;;;;;13.50;9.30;;;;;;;;;;5028463;28;20061;-91
2021/12/12 04:37:23;;;;;;;13.60;8.63;;;;;;;;;;5030120;28;20040;-92
2021/12/12 04:39:52;;;;;;;12.93;8.05;;;;;;;;;;5023868;28;20076;-92
2021/12/12 04:42:21;;;;;;;12.88;8.15;;;;;;;;;;5006122;28;20124;-92
2021/12/12 04:44:48;;;;;;;15.57;10.07;;;;;;;;;;5018535;28;20048;-93
2021/12/12 04:50:10;;;;;;;10.55;7.57;;;;;;;;;;5028263;28;20416;-95
2021/12/12 04:52:51;;;;;;;14.00;8.88;;;;;;;;;;5011237;28;20029;-91
2021/12/12 04:55:24;;;;;;;11.07;7.88;;;;;;;;;;5033723;28;20073;-90
2021/12/12 04:58:09;;;;;;;11.77;8.02;;;;;;;;;;5017277;28;20081;-94
2021/12/12 05:00:39;;;;;;;11.80;8.55;;;;;;;;;;5022867;28;20033;-93
2021/12/12 05:03:08;;;;;;;9.75;7.15;;;;;;;;;;5033912;28;20025;-92
2021/12/12 05:05:39;;;;;;;9.80;7.47;;;;;;;;;;5018269;28;20037;-93
2021/12/12 05:08:12;;;;;;;16.60;7.95;;;;;;;;;;5016239;28;20045;-93
2021/12/12 05:10:38;;;;;;;10.93;7.80;;;;;;;;;;5032398;28;20266;-93
2021/12/12 05:13:11;;;;;;;11.65;7.65;;;;;;;;;;5029683;28;20038;-92
2021/12/12 05:16:03;;;;;;;11.80;8.02;;;;;;;;;;5026419;28;20042;-92
2021/12/12 05:18:30;;;;;;;14.55;9.32;;;;;;;;;;5009856;28;20041;-92
2021/12/12 05:21:16;;;;;;;13.48;8.27;;;;;;;;;;5027487;28;20040;-94
2021/12/12 05:23:45;;;;;;;10.48;7.80;;;;;;;;;;5016371;28;20036;-93
2021/12/12 05:26:14;;;;;;;10.02;7.20;;;;;;;;;;5005135;28;20049;-92
2021/12/12 05:28:42;;;;;;;11.98;8.40;;;;;;;;;;5015609;28;20094;-94
2021/12/12 05:31:09;;;;;;;12.32;8.55;;;;;;;;;;5019071;28;20041;-92
2021/12/12 05:33:35;;;;;;;10.93;8.00;;;;;;;;;;5034346;28;20037;-92
2021/12/12 05:36:02;;;;;;;8.85;6.35;;;;;;;;;;5013034;28;20037;-92
2021/12/12 05:38:29;;;;;;;12.00;7.68;;;;;;;;;;5017416;28;20041;-92
2021/12/12 05:40:55;;;;;;;11.30;7.47;;;;;;;;;;5012015;28;20044;-91
2021/12/12 05:43:21;;;;;;;13.05;8.05;;;;;;;;;;5020490;28;20075;-93
2021/12/12 05:45:47;;;;;;;8.65;5.90;;;;;;;;;;5016142;28;20323;-92
2021/12/12 05:48:14;;;;;;;9.95;7.13;;;;;;;;;;5012222;28;20091;-91
2021/12/12 05:50:43;;;;;;;8.75;6.90;;;;;;;;;;5033443;28;20044;-93
2021/12/12 05:53:09;;;;;;;9.07;5.63;;;;;;;;;;5017719;28;20140;-93
2021/12/12 05:55:37;;;;;;;10.18;7.35;;;;;;;;;;5011220;28;20132;-93
2021/12/12 05:58:05;;;;;;;10.18;7.30;;;;;;;;;;5032901;28;20116;-93
2021/12/12 06:00:42;;;;;;;9.27;7.00;;;;;;;;;;5016747;28;20069;-94
2021/12/12 06:03:12;;;;;;;13.27;7.63;;;;;;;;;;5015414;28;20044;-92
2021/12/12 06:05:38;;;;;;;15.80;10.07;;;;;;;;;;5016628;28;20056;-91
2021/12/12 06:08:05;;;;;;;11.95;9.20;;;;;;;;;;5017592;28;20072;-93
2021/12/12 06:10:32;;;;;;;11.55;7.35;;;;;;;;;;5004803;28;20105;-92
2021/12/12 06:13:03;;;;;;;10.60;8.60;;;;;;;;;;5024879;28;20030;-93
2021/12/12 06:15:32;;;;;;;13.30;9.15;;;;;;;;;;5018290;28;20052;-94
2021/12/12 06:17:59;;;;;;;11.32;8.18;;;;;;;;;;5038013;28;20092;-92
2021/12/12 06:20:26;;;;;;;12.93;8.80;;;;;;;;;;5016237;28;20042;-92
2021/12/12 06:22:53;;;;;;;11.48;7.55;;;;;;;;;;5026510;28;20035;-93
2021/12/12 06:25:19;;;;;;;11.77;8.07;;;;;;;;;;5013976;28;20041;-92
2021/12/12 06:27:45;;;;;;;9.27;6.43;;;;;;;;;;5016586;28;20113;-92
2021/12/12 06:30:15;;;;;;;12.85;8.43;;;;;;;;;;5015494;28;20037;-90
2021/12/12 06:32:45;;;;;;;11.43;8.38;;;;;;;;;;5016978;28;20045;-93
2021/12/12 06:35:12;;;;;;;12.70;10.02;;;;;;;;;;5014067;28;20038;-91
2021/12/12 06:37:38;;;;;;;11.88;7.85;;;;;;;;;;5031467;28;20034;-90
2021/12/12 06:40:09;;;;;;;11.05;8.25;;;;;;;;;;5014618;28;20037;-91
2021/12/12 06:42:37;;;;;;;14.18;9.35;;;;;;;;;;5028414;28;20415;-92
2021/12/12 06:45:04;;;;;;;10.82;7.43;;;;;;;;;;5032666;28;20037;-92
2021/12/12 06:47:30;;;;;;;14.43;8.95;;;;;;;;;;5014605;28;20408;-93
2021/12/12 06:49:58;;;;;;;13.23;9.63;;;;;;;;;;5017097;28;20270;-95
2021/12/12 06:52:25;;;;;;;12.88;8.98;;;;;;;;;;5011914;28;20048;-94
2021/12/12 06:54:52;;;;;;;15.75;9.57;;;;;;;;;;5037244;28;20255;-91
2021/12/12 06:57:19;;;;;;;11.43;8.40;;;;;;;;;;5042136;28;20072;-93
2021/12/12 06:59:46;;;;;;;16.33;9.63;;;;;;;;;;5037297;28;20025;-92
2021/12/12 07:02:12;;;;;;;16.63;9.98;;;;;;;;;;5011765;28;20103;-92
2021/12/12 07:04:40;;;;;;;17.40;10.63;;;;;;;;;;5019812;28;20326;-92
2021/12/12 07:07:07;;;;;;;15.40;11.48;;;;;;;;;;5028996;28;20116;-93
2021/12/12 07:09:35;;;;;;;12.93;9.95;;;;;;;;;;5035065;28;20037;-92
2021/12/12 07:12:04;;;;;;;17.50;11.40;;;;;;;;;;5018971;28;20098;-94
2021/12/12 07:14:31;;;;;;;14.73;10.30;;;;;;;;;;5019073;28;20274;-91
2021/12/12 07:16:57;;;;;;;18.48;9.95;;;;;;;;;;5033714;28;20037;-93
2021/12/12 07:19:24;;;;;;;11.95;9.38;;;;;;;;;;5020188;28;20041;-93
2021/12/12 07:21:50;;;;;;;15.00;10.35;;;;;;;;;;5036020;28;20038;-93
2021/12/12 07:24:17;;;;;;;20.42;8.50;;;;;;;;;;5036643;28;20335;-93
2021/12/12 07:26:46;;;;;;;13.43;10.10;;;;;;;;;;5018858;28;20045;-92
2021/12/12 07:29:15;;;;;;;17.90;9.93;;;;;;;;;;5021459;28;20040;-91
2021/12/12 07:31:42;;;;;;;14.18;10.38;;;;;;;;;;5036681;28;20029;-93
2021/12/12 07:34:10;;;;;;;14.90;10.15;;;;;;;;;;5014906;28;20056;-95
2021/12/12 07:36:40;;;;;;;17.42;10.38;;;;;;;;;;5017642;28;20452;-93
2021/12/12 07:39:10;;;;;;;13.25;8.88;;;;;;;;;;5041190;28;20029;-92
2021/12/12 07:41:39;;;;;;;14.75;9.55;;;;;;;;;;5026161;28;20263;-93
2021/12/12 07:44:07;;;;;;;14.45;10.00;;;;;;;;;;5037043;28;20365;-91
2021/12/12 07:46:33;;;;;;;14.57;10.02;;;;;;;;;;5028962;28;20025;-93
2021/12/12 07:49:00;;;;;;;15.02;9.77;;;;;;;;;;5026903;28;20041;-93
2021/12/12 07:51:26;;;;;;;15.52;9.45;;;;;;;;;;5028637;28;20045;-93
2021/12/12 07:53:58;;;;;;;13.25;7.68;;;;;;;;;;5020437;28;20041;-93
2021/12/12 07:56:27;;;;;;;14.15;9.07;;;;;;;;;;5037729;28;20057;-93
2021/12/12 07:58:54;;;;;;;13.20;8.50;;;;;;;;;;5020835;28;20037;-93
2021/12/12 08:01:23;;;;;;;17.92;8.48;;;;;;;;;;5038346;28;20043;-94
2021/12/12 08:03:52;;;;;;;19.88;9.43;;;;;;;;;;5010344;28;20026;-92
2021/12/12 08:06:18;;;;;;;17.60;9.13;;;;;;;;;;5041447;28;20239;-94
2021/12/12 08:08:45;;;;;;;15.25;9.32;;;;;;;;;;5016928;28;20049;-93
2021/12/12 08:11:14;;;;;;;13.45;9.10;;;;;;;;;;5038437;28;20042;-92
2021/12/12 08:13:41;;;;;;;11.70;7.82;;;;;;;;;;5017563;28;20033;-92
2021/12/12 08:16:09;;;;;;;27.50;11.65;;;;;;;;;;5021432;28;20072;-92
2021/12/12 08:18:35;;;;;;;13.82;8.60;;;;;;;;;;5024172;28;20036;-92
2021/12/12 08:21:04;;;;;;;15.57;10.80;;;;;;;;;;5023608;28;20041;-93
2021/12/12 08:23:34;;;;;;;12.02;7.38;;;;;;;;;;5022282;28;20056;-93
2021/12/12 08:26:02;;;;;;;15.52;8.75;;;;;;;;;;5020578;28;20060;-92
2021/12/12 08:28:31;;;;;;;12.85;7.63;;;;;;;;;;5021967;28;20045;-93
2021/12/12 08:31:00;;;;;;;16.20;11.38;;;;;;;;;;5039171;28;20044;-94
2021/12/12 08:33:27;;;;;;;15.10;8.27;;;;;;;;;;5037205;28;20029;-91
2021/12/12 08:35:56;;;;;;;19.55;10.35;;;;;;;;;;5023055;28;20072;-94
2021/12/12 08:38:38;;;;;;;21.35;9.85;;;;;;;;;;5038788;28;20029;-91
2021/12/12 08:41:05;;;;;;;16.30;9.80;;;;;;;;;;5013540;28;20104;-93
2021/12/12 08:43:32;;;;;;;15.45;8.15;;;;;;;;;;5038785;28;20044;-91
2021/12/12 08:46:06;;;;;;;28.30;10.38;;;;;;;;;;5022073;28;20029;-91
2021/12/12 08:48:34;;;;;;;15.25;6.95;;;;;;;;;;5034043;28;20034;-90
2021/12/12 08:51:10;;;;;;;17.42;8.45;;;;;;;;;;5020769;28;20037;-91
2021/12/12 08:53:36;;;;;;;35.30;12.55;;;;;;;;;;5024656;28;20394;-90
2021/12/12 08:56:05;;;;;;;33.70;13.55;;;;;;;;;;5031067;28;20049;-90
2021/12/12 08:58:31;;;;;;;17.60;8.23;;;;;;;;;;5020993;28;20109;-93
2021/12/12 09:01:00;;;;;;;50.45;16.55;;;;;;;;;;5038380;28;20025;-93
2021/12/12 09:03:30;;;;;;;35.00;11.48;;;;;;;;;;5039686;28;20036;-93
2021/12/12 09:05:59;;;;;;;32.90;11.93;;;;;;;;;;5039388;28;20164;-92
2021/12/12 09:14:28;;;;;;;30.08;9.40;;;;;;;;;;4912954;28;20048;-80
2021/12/12 09:17:05;;;;;;;60.85;17.45;;;8.10;99.90;;;;;;5048573;28;20265;-79
2021/12/12 09:19:54;;;;;;;42.55;12.98;;;;;;;;;;5038725;28;20049;-81
2021/12/12 09:22:20;;;;;;;57.47;15.48;;;;;;;;;;5036310;28;20083;-83
2021/12/12 09:24:46;;;;;;;46.95;13.23;;;;;;;;;;5030931;28;20293;-81
2021/12/12 09:34:10;;;;;;;41.55;11.60;;;;;;;;;;5045317;28;20254;-80
2021/12/12 09:36:43;;;;;;;78.65;17.98;;;;;;;;;;5035536;28;20033;-80
2021/12/12 09:39:11;;;;;;;33.20;10.02;;;;;;;;;;5038588;28;20041;-81
2021/12/12 09:41:45;;;;;;;51.78;13.73;;;;;;;;;;5052907;28;20028;-80
2021/12/12 09:44:50;;;;;;;31.40;10.35;;;;;;;;;;5050223;28;20064;-80
2021/12/12 09:47:30;;;;;;;42.28;13.18;;;;;;;;;;4960846;28;20392;-80
2021/12/12 09:52:56;;;;;;;58.88;15.10;;;;;;;;;;5032121;28;20032;-80
2021/12/12 09:55:35;;;;;;;32.53;10.68;;;;;;;;;;5051059;28;20098;-80
2021/12/12 09:58:15;;;;;;;26.50;9.75;;;;;;;;;;5042615;28;20025;-80
2021/12/12 10:00:44;;;;;;;21.63;6.78;;;;;;;;;;5045448;28;20103;-80
2021/12/12 10:03:13;;;;;;;26.65;9.93;;;;;;;;;;5034291;28;20404;-79
2021/12/12 10:05:58;;;;;;;24.27;7.35;;;;;;;;;;5050971;28;20102;-80
2021/12/12 10:08:30;;;;;;;44.17;11.70;;;;;;;;;;5052564;28;20028;-80
2021/12/12 10:11:16;;;;;;;28.55;9.05;;;;;;;;;;5044428;28;20052;-79
2021/12/12 10:13:47;;;;;;;30.40;9.52;;;;;;;;;;5049229;28;20038;-80
2021/12/12 10:16:18;;;;;;;30.05;8.48;;;;;;;;;;5033190;28;20156;-80
2021/12/12 10:18:52;;;;;;;19.92;6.40;;;;;;;;;;5046249;28;20033;-80
2021/12/12 10:21:37;;;;;;;10.93;4.35;;;;;;;;;;5043403;28;20093;-80
2021/12/12 10:24:21;;;;;;;15.90;4.55;;;;;;;;;;5026857;28;20063;-80
2021/12/12 10:26:53;;;;;;;33.30;8.93;;;;;;;;;;5030221;28;20071;-80
2021/12/12 10:29:22;;;;;;;11.20;4.60;;;;;;;;;;5048164;28;20146;-80
2021/12/12 10:31:48;;;;;;;17.65;5.72;;;;;;;;;;5023652;28;20255;-80
2021/12/12 10:34:17;;;;;;;17.85;6.10;;;;;;;;;;5054977;28;20028;-80
2021/12/12 10:36:51;;;;;;;18.42;7.05;;;;;;;;;;5048316;28;20258;-79
2021/12/12 10:39:21;;;;;;;27.02;8.32;;;;;;;;;;5046798;28;20282;-80
2021/12/12 10:41:49;;;;;;;13.27;4.70;;;;;;;;;;5027000;28;20025;-80
2021/12/12 10:44:36;;;;;;;45.90;13.95;;;;;;;;;;5047148;28;20039;-80
2021/12/12 10:47:09;;;;;;;33.90;8.10;;;;;;;;;;5034677;28;20100;-80
2021/12/12 10:49:43;;;;;;;29.83;8.27;;;;;;;;;;5048234;28;20243;-79
2021/12/12 10:55:57;;;;;;;6.68;3.15;;;;;;;;;;5047004;28;20674;-81
2021/12/12 10:58:32;;;;;;;7.63;3.75;;;;;;;;;;5030850;28;20040;-79
2021/12/12 11:01:02;;;;;;;17.15;7.28;;;;;;;;;;5044409;28;20037;-79
2021/12/12 11:03:36;;;;;;;16.70;5.68;;;;;;;;;;5046849;28;20244;-80
2021/12/12 11:06:08;;;;;;;20.63;8.05;;;;;;;;;;5031080;28;20068;-80
2021/12/12 11:15:15;;;;;;;8.55;3.78;;;;;;;;;;5017899;28;20280;-81
2021/12/12 11:17:44;;;;;;;7.78;2.95;;;;;;;;;;5010518;28;20042;-81
2021/12/12 11:20:31;;;;;;;3.30;1.60;;;;;;;;;;4996000;28;20038;-81
2021/12/12 11:23:13;;;;;;;5.88;2.45;;;;;;;;;;4974284;28;20036;-81
2021/12/12 11:25:39;;;;;;;7.05;3.13;;;;;;;;;;4991569;28;20223;-82
2021/12/12 11:28:18;;;;;;;5.32;1.65;;;;;;;;;;4979851;28;20214;-82
2021/12/12 11:30:49;;;;;;;7.70;3.45;;;;;;;;;;4997168;28;20030;-82
2021/12/12 11:33:17;;;;;;;2.40;1.23;;;;;;;;;;4992494;28;20042;-82
2021/12/12 11:35:45;;;;;;;11.77;4.60;;;;;;;;;;4991354;28;20061;-81
2021/12/12 11:38:23;;;;;;;6.60;2.70;;;;;;;;;;4994887;28;20061;-82
2021/12/12 11:41:11;;;;;;;11.35;4.65;;;;;;;;;;4996255;28;20242;-81
2021/12/12 11:43:43;;;;;;;10.27;5.07;;;;;;;;;;4991779;28;20080;-81
2021/12/12 11:46:13;;;;;;;11.25;5.40;;;;;;;;;;4994752;28;20050;-80
2021/12/12 11:48:52;;;;;;;13.27;6.47;;;;;;;;;;5000971;28;20050;-81
2021/12/12 11:51:50;;;;;;;14.55;7.38;;;;;;;;;;4974420;28;20039;-81
2021/12/12 11:54:33;;;;;;;7.72;2.53;;;;;;;;;;4975196;28;20089;-81
2021/12/12 11:57:03;;;;;;;14.20;6.25;;;;;;;;;;4993075;28;20026;-81
2021/12/12 11:59:53;;;;;;;16.25;7.75;;;;;;;;;;4991935;28;20053;-81
2021/12/12 12:02:42;;;;;;;13.27;5.22;;;;;;;;;;4986645;28;20043;-82
2021/12/12 12:05:12;;;;;;;11.70;4.82;;;;;;;;;;4982064;28;20047;-82
2021/12/12 12:07:41;;;;;;;10.73;3.10;;;;;;;;;;4978830;28;20057;-81
2021/12/12 12:10:16;;;;;;;46.45;7.63;;;;;;;;;;4978027;28;20185;-82
2021/12/12 12:13:01;;;;;;;16.00;6.53;;;;;;;;;;4993753;28;20097;-82
2021/12/12 12:15:27;;;;;;;20.10;8.43;;;;;;;;;;4988384;28;21087;-83
2021/12/12 12:18:00;;;;;;;23.63;8.98;;;;;;;;;;4976096;28;20054;-84
2021/12/12 12:20:53;;;;;;;25.10;8.55;;;;;;;;;;4980768;28;20249;-83
2021/12/12 12:23:33;;;;;;;22.75;8.25;;;;;;;;;;4979253;28;20073;-83
2021/12/12 12:28:56;;;;;;;20.15;7.55;;;10.30;99.90;;;;;;4995793;28;20555;-83
2021/12/12 12:31:39;;;;;;;19.75;7.90;;;;;;;;;;4977575;28;20132;-84
2021/12/12 12:34:17;;;;;;;14.90;5.43;;;;;;;;;;4998083;28;20034;-85
2021/12/12 12:37:02;;;;;;;23.73;8.63;;;;;;;;;;4985464;28;20053;-84
2021/12/12 12:39:48;;;;;;;22.30;8.05;;;;;;;;;;5000061;28;20162;-85
2021/12/12 12:42:33;;;;;;;22.75;7.22;;;;;;;;;;5016062;28;20042;-85
2021/12/12 12:45:18;;;;;;;26.92;9.65;;;;;;;;;;5005152;28;20046;-85
2021/12/12 12:48:03;;;;;;;10.60;3.00;;;;;;;;;;5000706;28;20054;-84
2021/12/12 12:50:29;;;;;;;25.58;9.07;;;;;;;;;;4995758;28;20318;-84
2021/12/12 12:52:55;;;;;;;18.08;7.05;;;;;;;;;;4995128;28;20082;-82
2021/12/12 12:55:22;;;;;;;26.00;7.97;;;;;;;;;;4996881;28;20311;-83
2021/12/12 12:57:49;;;;;;;18.65;7.70;;;;;;;;;;5001544;28;20366;-85
2021/12/12 13:00:17;;;;;;;23.40;7.95;;;;;;;;;;5007750;28;20034;-83
2021/12/12 13:02:49;;;;;;;20.17;7.05;;;;;;;;;;4991403;28;20027;-83
2021/12/12 13:05:22;;;;;;;15.93;4.65;;;;;;;;;;5000083;28;20048;-83
2021/12/12 13:08:25;;;;;;;22.88;9.05;;;10.60;99.90;;;;;;4998162;28;20049;-84
2021/12/12 13:10:52;;;;;;;20.52;7.47;;;;;;;;;;4984376;28;20058;-84
2021/12/12 13:13:27;;;;;;;21.20;6.30;;;;;;;;;;4999745;28;20290;-84
2021/12/12 13:15:53;;;;;;;;;;;;;;;;;;5002011;28;20106;-83
2021/12/12 13:18:30;;;;;;;29.83;9.25;;;;;;;;;;4998633;28;19910;-83
2021/12/12 13:21:14;;;;;;;27.52;8.85;;;;;;;;;;4997670;28;20038;-81
2021/12/12 13:24:04;;;;;;;31.20;9.47;;;;;;;;;;4996916;28;20101;-83
2021/12/12 13:26:36;;;;;;;21.15;8.02;;;;;;;;;;4993698;28;20426;-82
2021/12/12 13:29:14;;;;;;;28.55;10.02;;;;;;;;;;4999547;28;20121;-82
2021/12/12 13:31:45;;;;;;;32.55;8.65;;;;;;;;;;4993952;28;20031;-84
2021/12/12 13:34:32;;;;;;;36.38;10.05;;;;;;;;;;4996830;28;20023;-82
2021/12/12 13:37:04;;;;;;;26.75;9.73;;;10.40;99.90;;;;;;4990012;28;20034;-83
2021/12/12 13:39:30;;;;;;;40.78;11.93;;;;;;;;;;4996907;28;20271;-83
2021/12/12 13:42:06;;;;;;;18.42;6.68;;;;;;;;;;5014401;28;20105;-80
2021/12/12 13:44:32;;;;;;;37.15;10.68;;;;;;;;;;4998652;28;20058;-83
2021/12/12 13:47:25;;;;;;;23.27;8.18;;;10.30;99.90;;;;;;5012972;28;20073;-83
2021/12/12 13:50:15;;;;;;;36.63;11.32;;;;;;;;;;4998254;28;20034;-83
2021/12/12 13:52:51;;;;;;;35.15;11.73;;;;;;;;;;4990564;28;20042;-83
2021/12/12 13:55:27;;;;;;;30.73;9.88;;;;;;;;;;4998123;28;20185;-83
2021/12/12 13:58:12;;;;;;;37.45;11.77;;;;;;;;;;4982662;28;20042;-83
2021/12/12 14:00:41;;;;;;;25.75;8.80;;;;;;;;;;4998918;28;20042;-83
2021/12/12 14:03:13;;;;;;;37.67;12.57;;;;;;;;;;4999178;28;20244;-84
2021/12/12 14:05:44;;;;;;;36.17;11.30;;;;;;;;;;4993997;28;20289;-82
2021/12/12 14:08:13;;;;;;;44.58;12.68;;;;;;;;;;4997393;28;20081;-81
2021/12/12 14:11:13;;;;;;;32.33;9.85;;;;;;;;;;4981764;28;20268;-82
2021/12/12 14:13:47;;;;;;;28.38;11.15;;;;;;;;;;4990178;28;20280;-83
2021/12/12 14:16:22;;;;;;;41.45;11.88;;;;;;;;;;4998233;28;20192;-82
2021/12/12 14:18:55;;;;;;;43.83;14.40;;;;;;;;;;4994763;28;20049;-83
2021/12/12 14:21:22;;;;;;;44.50;12.32;;;;;;;;;;4997148;28;20040;-83
2021/12/12 14:23:50;;;;;;;26.80;8.85;;;;;;;;;;5014592;28;20034;-82
2021/12/12 14:26:24;;;;;;;23.30;7.82;;;10.10;99.90;;;;;;4998166;28;20158;-83
2021/12/12 14:28:52;;;;;;;38.38;12.68;;;;;;;;;;4995709;28;20038;-81
2021/12/12 14:31:23;;;;;;;34.28;10.68;;;10.10;99.90;;;;;;5004270;28;20045;-83
2021/12/12 14:33:55;;;;;;;48.30;16.45;;;;;;;;;;4998924;28;20070;-81
2021/12/12 14:36:26;;;;;;;40.95;13.98;;;10.10;99.90;;;;;;4999110;28;20038;-81
2021/12/12 14:38:53;;;;;;;45.35;14.98;;;;;;;;;;4976906;28;20082;-80
2021/12/12 14:41:55;;;;;;;63.25;19.20;;;;;;;;;;4998116;28;20030;-81
2021/12/12 14:44:36;;;;;;;42.22;13.23;;;10.10;99.90;;;;;;4999956;28;20034;-80
2021/12/12 14:47:07;;;;;;;25.92;8.45;;;10.10;99.90;;;;;;5000001;28;20077;-80
2021/12/12 14:49:42;;;;;;;35.03;10.35;;;;;;;;;;4991051;28;20093;-81
2021/12/12 14:52:18;;;;;;;40.45;13.65;;;;;;;;;;4998957;28;20038;-81
2021/12/12 14:54:51;;;;;;;23.17;8.82;;;;;;;;;;5015657;28;20054;-81
2021/12/12 14:57:18;;;;;;;28.27;11.30;;;;;;;;;;4996134;28;20144;-81
2021/12/12 14:59:46;;;;;;;36.58;11.85;;;;;;;;;;4994626;28;20165;-81
2021/12/12 15:02:18;;;;;;;32.22;11.57;;;;;;;;;;5013869;28;20034;-81
2021/12/12 15:04:53;;;;;;;21.95;9.02;;;;;;;;;;4995072;28;20085;-81
2021/12/12 15:07:20;;;;;;;33.97;12.25;;;;;;;;;;4994499;28;20073;-81
2021/12/12 15:09:49;;;;;;;36.28;11.27;;;;;;;;;;4991505;28;20187;-81
2021/12/12 15:12:18;;;;;;;24.10;9.48;;;;;;;;;;4978795;28;20030;-81
2021/12/12 15:14:46;;;;;;;68.30;20.15;;;;;;;;;;4980632;28;20054;-81
2021/12/12 15:17:15;;;;;;;120.25;33.78;;;;;;;;;;4986766;28;20070;-81
2021/12/12 15:19:47;;;;;;;38.15;14.48;;;;;;;;;;4993101;28;20131;-81
2021/12/12 15:22:14;;;;;;;32.45;12.60;;;;;;;;;;4973502;28;20023;-81
2021/12/12 15:24:45;;;;;;;32.70;11.27;;;;;;;;;;5013780;28;20211;-81
2021/12/12 15:27:16;;;;;;;36.28;14.02;;;;;;;;;;4997827;28;20061;-81
2021/12/12 15:29:44;;;;;;;28.65;12.00;;;;;;;;;;5011963;28;20042;-81
2021/12/12 15:32:13;;;;;;;36.08;13.35;;;;;;;;;;4996189;28;20251;-80